Decoded Metar for OIAM (BANDAR MAHSHAHR in IRAN) (IATA:MRX) | Meteo·Mobile Aviation Weather
aviador You're here:

OIAM Decoded Metar

BANDAR MAHSHAHR in IRAN
Report Time2018-09-22 15:00:00
UTC Time2018-09-22 15:11:42
Flight Rules vfr VFR
Wind300° at 08 kt
W.Decomp.*RWY 31: 7.8 kt HW 1.8 kt LCW
W.Rank300° ranks 1
Current wind is below 300° avg. (10.4)
Visibility9999 m
Phenomena:N/A
Clouds:N/A
Expected CloudBase > 10,400 ft AGL from Temp-Dew spread
CeilingNone
Temp40°C (ISA +25)
Dew Point14°C (21% RH)
Heat Index39.7°C
AAT38.2°C
QNH1005 hPa
Density Alt3,307 ft
Elevation13 ft
Report Wrong Elevation
Raw Report
METAR OIAM 221500Z 30008KT CAVOK 40/14 Q1005=

Extra information for OIAM:More info

Metar Taf Metar & Taf Last 4 Metars F.Rules Stats Wind Profile Meteogram Temp Stats Airport Information Weather charts Add Link Nearby VenuesMetar ALERT Operation Metar Decoded Social comments